Elk Ranch, Arkansas
Current Conditions -  °F | °C
As of 7:57 AM on Monday 24 Nov 2014 (Local Time) from KROG Reporting Station
Clear Clear  
Wind Chill: 29°   Ceiling: Unl
Heat Index: 37°   Visibility: 10mi
Dew Point: 30°   Wind: 12mph
Humidity: 76%   Direction: 250°WSW
Pressure: 29.82"   Gusts: NA
Location:  36.4036°N, 93.7443°W
Report Text: KROG 241357Z 25010KT 10SM CLR 03/M01 A2982 RMK AO2 SLP098 T00281011
Loading
Personal Weather Stations






























Interactive Weather Map New forecast layout! Learn more

10-Day Weather Forecast

Advertisements
Track Severe Weather on mobile